createdAt,value
2022-10-28T00:00:13.507Z,24.97
2022-10-28T00:02:44.177Z,25.13
2022-10-28T00:05:13.317Z,23.83
2022-10-28T00:07:41.907Z,22.70
2022-10-28T00:10:11.115Z,24.23
2022-10-28T00:12:39.842Z,28.10
2022-10-28T00:15:09.271Z,27.57
2022-10-28T00:17:38.585Z,26.90
2022-10-28T00:20:10.671Z,29.13
2022-10-28T00:22:39.992Z,27.27
2022-10-28T00:25:10.120Z,27.97
2022-10-28T00:27:40.013Z,26.20
2022-10-28T00:30:10.359Z,22.60
2022-10-28T00:32:40.734Z,24.77
2022-10-28T00:35:13.072Z,23.03
2022-10-28T00:37:43.102Z,24.20
2022-10-28T00:40:16.054Z,24.50
2022-10-28T00:42:45.125Z,26.87
2022-10-28T00:45:14.521Z,27.70
2022-10-28T00:47:56.074Z,27.83
2022-10-28T00:50:44.827Z,27.73
2022-10-28T00:53:17.326Z,29.37
2022-10-28T00:55:48.480Z,27.27
2022-10-28T00:58:20.218Z,25.57
2022-10-28T01:00:49.932Z,26.67
2022-10-28T01:03:20.614Z,26.70
2022-10-28T01:05:52.497Z,25.07
2022-10-28T01:08:22.490Z,25.27
2022-10-28T01:11:21.433Z,25.77
2022-10-28T01:14:09.569Z,27.07
2022-10-28T01:16:47.401Z,27.87
2022-10-28T01:19:39.461Z,27.73
2022-10-28T01:22:22.532Z,27.20
2022-10-28T01:25:09.840Z,27.83
2022-10-28T01:28:01.360Z,26.20
2022-10-28T01:30:36.159Z,24.50
2022-10-28T01:33:12.507Z,24.70
2022-10-28T01:35:49.040Z,23.43
2022-10-28T01:38:31.006Z,24.43
2022-10-28T01:41:09.985Z,23.30
2022-10-28T01:43:48.225Z,23.23
2022-10-28T01:46:21.669Z,25.17
2022-10-28T01:48:57.059Z,25.73
2022-10-28T01:51:31.198Z,24.73
2022-10-28T01:54:04.062Z,25.20
2022-10-28T01:56:39.553Z,24.17
2022-10-28T01:59:12.390Z,25.63
2022-10-28T02:01:41.811Z,22.90
2022-10-28T02:04:12.527Z,25.57
2022-10-28T02:06:44.115Z,25.40
2022-10-28T02:09:25.996Z,24.23
2022-10-28T02:12:30.589Z,24.97
2022-10-28T02:15:22.464Z,23.50
2022-10-28T02:18:22.235Z,22.23
2022-10-28T02:20:58.068Z,23.00
2022-10-28T02:23:40.029Z,22.73
2022-10-28T02:26:16.602Z,24.03
2022-10-28T02:28:56.115Z,23.97
2022-10-28T02:31:27.854Z,23.93
2022-10-28T02:34:01.472Z,24.70
2022-10-28T02:36:37.358Z,25.67
2022-10-28T02:39:08.357Z,26.53
2022-10-28T02:41:41.338Z,23.20
2022-10-28T02:44:13.140Z,26.17
2022-10-28T02:46:45.712Z,23.63
2022-10-28T02:49:16.728Z,25.97
2022-10-28T02:51:53.462Z,25.30
2022-10-28T02:54:27.096Z,25.57
2022-10-28T02:57:01.440Z,24.33
2022-10-28T02:59:31.146Z,25.20
2022-10-28T03:02:00.576Z,25.97
2022-10-28T03:04:29.612Z,23.70
2022-10-28T03:06:59.446Z,25.67
2022-10-28T03:09:28.009Z,23.87
2022-10-28T03:11:56.458Z,24.93
2022-10-28T03:14:25.468Z,26.80
2022-10-28T03:16:54.115Z,25.47
2022-10-28T03:19:23.065Z,25.80
2022-10-28T03:21:52.212Z,24.50
2022-10-28T03:24:22.409Z,23.50
2022-10-28T03:26:51.030Z,22.50
2022-10-28T03:29:20.015Z,26.60
2022-10-28T03:31:49.078Z,22.80
2022-10-28T03:34:18.602Z,24.00
2022-10-28T03:36:47.590Z,24.30
2022-10-28T03:39:16.534Z,23.70
2022-10-28T03:41:46.449Z,24.30
2022-10-28T03:44:14.851Z,24.93
2022-10-28T03:46:43.285Z,25.33
2022-10-28T03:49:12.901Z,26.90
2022-10-28T03:51:41.409Z,25.47
2022-10-28T03:54:09.864Z,25.37
2022-10-28T03:56:40.572Z,26.20
2022-10-28T03:59:11.222Z,26.30
2022-10-28T04:01:41.478Z,25.07
2022-10-28T04:04:10.976Z,25.93
2022-10-28T04:06:39.536Z,26.93
2022-10-28T04:09:08.040Z,27.50
2022-10-28T04:11:36.722Z,27.70
2022-10-28T04:14:05.339Z,27.67
2022-10-28T04:16:35.343Z,27.87
2022-10-28T04:19:06.432Z,28.30
2022-10-28T04:21:35.403Z,31.40
2022-10-28T04:24:04.343Z,28.30
2022-10-28T04:26:32.920Z,30.40
2022-10-28T04:29:01.337Z,34.17
2022-10-28T04:31:29.831Z,32.60
2022-10-28T04:33:59.713Z,31.47
2022-10-28T04:36:28.429Z,34.70
2022-10-28T04:38:56.956Z,36.57
2022-10-28T04:41:25.463Z,35.40
2022-10-28T04:43:56.330Z,35.57
2022-10-28T04:46:25.829Z,31.53
2022-10-28T04:48:54.555Z,34.43
2022-10-28T04:51:24.632Z,35.97
2022-10-28T04:53:53.322Z,34.37
2022-10-28T04:56:21.922Z,33.77
2022-10-28T04:58:50.404Z,32.60
2022-10-28T05:01:19.101Z,33.10
2022-10-28T05:03:47.671Z,34.27
2022-10-28T05:06:16.229Z,30.90
2022-10-28T05:08:46.165Z,31.73
2022-10-28T05:11:14.991Z,32.57
2022-10-28T05:13:43.654Z,32.47
2022-10-28T05:16:14.485Z,32.63
2022-10-28T05:21:12.052Z,31.00
2022-10-28T05:23:40.707Z,32.73
2022-10-28T05:26:10.699Z,30.17
2022-10-28T05:28:39.198Z,32.23
2022-10-28T05:31:08.191Z,31.77
2022-10-28T05:33:36.761Z,31.13
2022-10-28T05:36:05.440Z,33.33
2022-10-28T05:38:33.921Z,31.10
2022-10-28T05:41:03.445Z,32.20
2022-10-28T05:43:33.621Z,31.70
2022-10-28T05:46:02.630Z,33.80
2022-10-28T05:48:31.268Z,34.87
2022-10-28T05:50:59.839Z,34.37
2022-10-28T05:53:30.285Z,31.63
2022-10-28T05:55:58.773Z,33.63
2022-10-28T05:58:27.348Z,30.33
2022-10-28T06:00:57.298Z,32.90
2022-10-28T06:03:30.116Z,32.33
2022-10-28T06:06:01.970Z,28.93
2022-10-28T06:08:30.709Z,30.20
2022-10-28T06:10:57.958Z,31.80
2022-10-28T06:13:32.273Z,29.37
2022-10-28T06:16:04.216Z,30.80
2022-10-28T06:18:33.461Z,30.47
2022-10-28T06:21:02.660Z,30.17
2022-10-28T06:23:31.562Z,28.50
2022-10-28T06:26:02.215Z,31.40
2022-10-28T06:28:32.540Z,30.60
2022-10-28T06:31:08.606Z,28.13
2022-10-28T06:33:37.457Z,28.40
2022-10-28T06:36:07.191Z,29.60
2022-10-28T06:38:35.881Z,30.30
2022-10-28T06:41:04.940Z,27.60
2022-10-28T06:43:35.201Z,28.80
2022-10-28T06:46:07.662Z,26.47
2022-10-28T06:48:38.072Z,29.40
2022-10-28T06:51:07.445Z,27.50
2022-10-28T06:53:36.096Z,26.70
2022-10-28T06:56:05.110Z,25.67
2022-10-28T06:58:33.587Z,25.90
2022-10-28T07:01:05.724Z,25.80
2022-10-28T07:03:35.974Z,25.47
2022-10-28T07:06:07.383Z,24.53
2022-10-28T07:08:36.185Z,26.60
2022-10-28T07:11:06.463Z,25.73
2022-10-28T07:13:35.376Z,22.87
2022-10-28T07:16:06.351Z,24.97
2022-10-28T07:18:36.314Z,24.73
2022-10-28T07:21:09.438Z,23.57
2022-10-28T07:23:38.073Z,22.07
2022-10-28T07:26:07.261Z,23.07
2022-10-28T07:28:36.260Z,21.67
2022-10-28T07:31:07.516Z,21.37
2022-10-28T07:33:38.488Z,22.57
2022-10-28T07:36:08.339Z,20.97
2022-10-28T07:38:37.124Z,22.47
2022-10-28T07:41:07.133Z,21.43
2022-10-28T07:43:38.212Z,22.93
2022-10-28T07:46:07.397Z,21.97
2022-10-28T07:48:39.887Z,21.57
2022-10-28T07:51:11.575Z,20.53
2022-10-28T07:53:43.392Z,20.47
2022-10-28T07:56:15.754Z,20.47
2022-10-28T07:58:46.609Z,20.00
2022-10-28T08:01:20.024Z,22.00
2022-10-28T08:03:50.135Z,25.23
2022-10-28T08:06:20.976Z,22.50
2022-10-28T08:08:54.382Z,28.90
2022-10-28T08:11:24.850Z,27.23
2022-10-28T08:13:56.491Z,22.00
2022-10-28T08:16:25.374Z,21.67
2022-10-28T08:18:57.530Z,25.23
2022-10-28T08:21:27.202Z,44.10
2022-10-28T08:23:58.107Z,23.33
2022-10-28T08:26:26.797Z,27.80
2022-10-28T08:28:55.229Z,27.67
2022-10-28T08:31:23.996Z,19.67
2022-10-28T08:33:54.103Z,18.10
2022-10-28T08:36:22.541Z,55.07
2022-10-28T08:38:51.011Z,19.43
2022-10-28T08:41:31.117Z,18.30
2022-10-28T08:44:21.466Z,15.63
2022-10-28T08:47:03.479Z,16.37
2022-10-28T08:49:35.760Z,16.37
2022-10-28T08:52:12.305Z,17.20
2022-10-28T08:54:47.481Z,22.53
2022-10-28T08:57:21.641Z,18.30
2022-10-28T08:59:53.923Z,15.00
2022-10-28T09:02:24.285Z,15.27
2022-10-28T09:05:00.381Z,15.30
2022-10-28T09:07:28.892Z,15.40
2022-10-28T09:09:57.834Z,13.07
2022-10-28T09:12:34.772Z,13.23
2022-10-28T09:15:22.690Z,13.20
2022-10-28T09:17:56.003Z,12.50
2022-10-28T09:20:33.887Z,12.90
2022-10-28T09:23:11.265Z,11.27
2022-10-28T09:25:48.752Z,11.97
2022-10-28T09:28:34.195Z,11.20
2022-10-28T09:31:11.079Z,12.10
2022-10-28T09:33:54.906Z,11.43
2022-10-28T09:36:30.203Z,10.40
2022-10-28T09:39:01.619Z,10.80
2022-10-28T09:41:33.540Z,11.47
2022-10-28T09:44:09.622Z,10.97
2022-10-28T09:46:40.216Z,11.23
2022-10-28T09:49:17.540Z,11.50
2022-10-28T09:51:52.645Z,11.27
2022-10-28T09:54:28.889Z,14.03
2022-10-28T09:56:57.381Z,11.57
2022-10-28T09:59:25.882Z,11.50
2022-10-28T10:01:54.502Z,11.27
2022-10-28T10:04:25.138Z,11.00
2022-10-28T10:06:58.795Z,12.23
2022-10-28T10:09:29.692Z,11.70
2022-10-28T10:12:03.474Z,11.50
2022-10-28T10:14:37.827Z,10.73
2022-10-28T10:17:11.097Z,11.80
2022-10-28T10:20:01.608Z,12.00
2022-10-28T10:22:34.241Z,11.30
2022-10-28T10:25:02.755Z,10.67
2022-10-28T10:27:32.844Z,9.30
2022-10-28T10:30:01.541Z,9.90
2022-10-28T10:32:32.634Z,10.57
2022-10-28T10:35:06.664Z,10.23
2022-10-28T10:37:42.338Z,10.13
2022-10-28T10:40:22.108Z,10.27
2022-10-28T10:43:09.951Z,14.33
2022-10-28T10:45:39.577Z,11.43
2022-10-28T10:48:13.732Z,10.87
2022-10-28T10:50:43.746Z,10.80
2022-10-28T10:53:35.035Z,10.40
2022-10-28T10:56:05.698Z,11.10
2022-10-28T10:58:36.163Z,11.93
2022-10-28T11:01:07.374Z,12.10
2022-10-28T11:03:39.194Z,10.80
2022-10-28T11:06:23.159Z,12.33
2022-10-28T11:08:58.203Z,9.83
2022-10-28T11:11:35.044Z,9.47
2022-10-28T11:14:19.127Z,12.20
2022-10-28T11:16:52.413Z,9.83
2022-10-28T11:19:23.081Z,14.60
2022-10-28T11:22:13.841Z,12.00
2022-10-28T11:25:02.128Z,12.13
2022-10-28T11:27:42.348Z,11.47
2022-10-28T11:30:16.934Z,9.77
2022-10-28T11:33:02.247Z,8.87
2022-10-28T11:35:51.379Z,10.33
2022-10-28T11:38:33.109Z,9.33
2022-10-28T11:41:15.081Z,10.50
2022-10-28T11:43:54.795Z,9.87
2022-10-28T11:46:37.506Z,9.50
2022-10-28T11:49:39.202Z,9.80
2022-10-28T11:52:22.788Z,11.10
2022-10-28T11:55:08.289Z,8.90
2022-10-28T11:57:51.741Z,10.87
2022-10-28T12:00:44.639Z,8.00
2022-10-28T12:03:40.684Z,9.43
2022-10-28T12:06:17.778Z,9.70
2022-10-28T12:09:03.221Z,9.43
2022-10-28T12:11:44.687Z,9.13
2022-10-28T12:14:23.469Z,9.50
2022-10-28T12:16:59.261Z,8.30
2022-10-28T12:19:32.787Z,9.10
2022-10-28T12:22:06.185Z,9.60
2022-10-28T12:24:38.026Z,9.33
2022-10-28T12:27:17.072Z,9.20
2022-10-28T12:29:52.540Z,8.60
2022-10-28T12:32:27.440Z,8.70
2022-10-28T12:35:01.452Z,10.57
2022-10-28T12:37:37.775Z,10.13
2022-10-28T12:40:13.890Z,9.20
2022-10-28T12:42:46.631Z,9.87
2022-10-28T12:45:20.153Z,9.10
2022-10-28T12:47:53.811Z,9.70
2022-10-28T12:50:28.946Z,9.53
2022-10-28T12:53:15.309Z,11.30
2022-10-28T12:55:47.112Z,12.33
2022-10-28T12:58:20.350Z,9.80
2022-10-28T13:00:54.975Z,9.43
2022-10-28T13:03:23.538Z,11.10
2022-10-28T13:05:58.593Z,9.70
2022-10-28T13:09:02.029Z,9.80
2022-10-28T13:12:00.620Z,10.00
2022-10-28T13:14:58.760Z,11.03
2022-10-28T13:17:41.012Z,10.80
2022-10-28T13:20:18.298Z,10.37
2022-10-28T13:23:00.752Z,10.30
2022-10-28T13:25:43.860Z,10.73
2022-10-28T13:28:15.931Z,9.20
2022-10-28T13:30:55.089Z,10.77
2022-10-28T13:33:26.867Z,10.73
2022-10-28T13:35:56.831Z,11.80
2022-10-28T13:38:27.539Z,11.10
2022-10-28T13:41:33.574Z,12.57
2022-10-28T13:44:24.047Z,11.80
2022-10-28T13:47:27.598Z,11.97
2022-10-28T13:50:21.527Z,12.20
2022-10-28T13:53:43.672Z,12.53
2022-10-28T13:56:41.223Z,11.33
2022-10-28T13:59:22.985Z,12.00
2022-10-28T14:04:57.708Z,13.70
2022-10-28T14:07:30.324Z,11.73
2022-10-28T14:10:19.984Z,12.63
2022-10-28T14:12:53.967Z,13.57
2022-10-28T14:15:26.363Z,11.53
2022-10-28T14:18:09.848Z,12.57
2022-10-28T14:20:58.744Z,12.30
2022-10-28T14:24:07.410Z,12.20
2022-10-28T14:27:09.308Z,12.93
2022-10-28T14:29:47.523Z,13.03
2022-10-28T14:32:44.193Z,14.33
2022-10-28T14:35:24.596Z,13.43
2022-10-28T14:38:25.409Z,14.70
2022-10-28T14:41:05.924Z,13.00
2022-10-28T14:43:48.911Z,13.50
2022-10-28T14:46:30.664Z,12.60
2022-10-28T14:49:00.850Z,13.80
2022-10-28T14:51:37.291Z,13.47
2022-10-28T14:54:13.220Z,13.60
2022-10-28T14:56:42.712Z,12.83
2022-10-28T14:59:24.713Z,13.13
2022-10-28T15:02:02.024Z,13.70
2022-10-28T15:04:31.247Z,14.70
2022-10-28T15:07:00.208Z,12.83
2022-10-28T15:09:30.873Z,13.83
2022-10-28T15:12:02.257Z,13.33
2022-10-28T15:14:37.510Z,13.27
2022-10-28T15:17:14.994Z,14.43
2022-10-28T15:19:44.416Z,14.80
2022-10-28T15:22:19.352Z,22.00
2022-10-28T15:25:01.586Z,17.63
2022-10-28T15:27:31.828Z,16.27
2022-10-28T15:30:00.548Z,14.67
2022-10-28T15:32:37.391Z,15.97
2022-10-28T15:35:40.372Z,15.03
2022-10-28T15:38:35.630Z,14.10
2022-10-28T15:41:20.247Z,14.50
2022-10-28T15:43:56.615Z,13.63
2022-10-28T15:46:25.678Z,13.30
2022-10-28T15:48:57.363Z,13.97
2022-10-28T15:51:26.934Z,13.80
2022-10-28T15:53:56.159Z,14.40
2022-10-28T15:56:25.903Z,14.57
2022-10-28T15:59:11.329Z,18.00
2022-10-28T16:01:40.810Z,19.23
2022-10-28T16:04:44.457Z,22.93
2022-10-28T16:07:13.349Z,16.10
2022-10-28T16:09:47.968Z,17.50
2022-10-28T16:12:18.716Z,17.50
2022-10-28T16:14:50.687Z,15.23
2022-10-28T16:17:23.072Z,13.67
2022-10-28T16:19:55.614Z,14.77
2022-10-28T16:22:25.888Z,13.87
2022-10-28T16:24:55.208Z,15.80
2022-10-28T16:27:25.911Z,14.43
2022-10-28T16:29:55.101Z,15.20
2022-10-28T16:32:31.740Z,15.20
2022-10-28T16:35:04.415Z,16.43
2022-10-28T16:37:35.147Z,15.70
2022-10-28T16:40:03.704Z,16.30
2022-10-28T16:42:32.157Z,15.60
2022-10-28T16:45:00.662Z,18.60
2022-10-28T16:47:29.186Z,18.27
2022-10-28T16:49:57.946Z,18.80
2022-10-28T16:52:30.594Z,21.53
2022-10-28T16:54:59.547Z,27.10
2022-10-28T16:57:28.230Z,26.13
2022-10-28T16:59:56.822Z,24.50
2022-10-28T17:02:29.334Z,20.13
2022-10-28T17:04:58.674Z,20.13
2022-10-28T17:07:29.797Z,19.40
2022-10-28T17:09:58.615Z,20.50
2022-10-28T17:12:28.342Z,19.77
2022-10-28T17:14:56.823Z,19.93
2022-10-28T17:17:25.309Z,20.13
2022-10-28T17:19:53.739Z,21.80
2022-10-28T17:22:22.760Z,49.40
2022-10-28T17:24:52.944Z,57.30
2022-10-28T17:27:21.667Z,59.00
2022-10-28T17:29:50.242Z,29.80
2022-10-28T17:32:19.263Z,25.73
2022-10-28T17:34:47.724Z,27.30
2022-10-28T17:37:16.270Z,27.50
2022-10-28T17:39:44.834Z,45.30
2022-10-28T17:42:14.899Z,27.80
2022-10-28T17:44:43.357Z,21.90
2022-10-28T17:47:12.837Z,22.60
2022-10-28T17:49:41.466Z,20.97
2022-10-28T17:52:10.073Z,20.13
2022-10-28T17:54:38.638Z,20.80
2022-10-28T17:57:07.139Z,20.70
2022-10-28T17:59:36.981Z,21.00
2022-10-28T18:02:06.178Z,21.13
2022-10-28T18:04:35.052Z,20.43
2022-10-28T18:07:03.530Z,20.40
2022-10-28T18:09:32.911Z,21.40
2022-10-28T18:12:02.601Z,21.07
2022-10-28T18:14:31.498Z,20.20
2022-10-28T18:17:01.519Z,21.67
2022-10-28T18:19:30.224Z,21.43
2022-10-28T18:21:58.761Z,21.53
2022-10-28T18:24:27.285Z,21.40
2022-10-28T18:26:57.827Z,20.70
2022-10-28T18:29:26.471Z,22.70
2022-10-28T18:31:55.117Z,21.47
2022-10-28T18:34:25.118Z,22.13
2022-10-28T18:36:53.613Z,20.00
2022-10-28T18:39:22.132Z,20.30
2022-10-28T18:41:51.497Z,20.63
2022-10-28T18:44:24.198Z,20.67
2022-10-28T18:46:52.697Z,21.63
2022-10-28T18:49:21.849Z,21.67
2022-10-28T18:51:51.756Z,20.90
2022-10-28T18:54:20.446Z,35.40
2022-10-28T18:56:50.536Z,25.30
2022-10-28T18:59:20.957Z,21.07
2022-10-28T19:01:49.517Z,21.00
2022-10-28T19:04:18.048Z,22.03
2022-10-28T19:06:46.769Z,21.00
2022-10-28T19:09:16.600Z,21.70
2022-10-28T19:11:45.058Z,21.27
2022-10-28T19:14:13.733Z,20.47
2022-10-28T19:16:42.233Z,21.63
2022-10-28T19:19:10.696Z,23.67
2022-10-28T19:21:41.557Z,20.60
2022-10-28T19:24:10.443Z,20.27
2022-10-28T19:26:40.416Z,20.20
2022-10-28T19:29:09.096Z,18.73
2022-10-28T19:31:39.529Z,17.90
2022-10-28T19:34:10.786Z,19.00
2022-10-28T19:36:39.656Z,20.77
2022-10-28T19:39:08.195Z,20.90
2022-10-28T19:41:36.683Z,22.33
2022-10-28T19:44:06.819Z,20.77
2022-10-28T19:46:36.557Z,20.40
2022-10-28T19:49:06.325Z,19.43
2022-10-28T19:51:36.256Z,18.93
2022-10-28T19:54:06.921Z,19.83
2022-10-28T19:56:37.685Z,21.87
2022-10-28T19:59:08.736Z,20.50
2022-10-28T20:01:40.054Z,19.20
2022-10-28T20:04:09.859Z,19.77
2022-10-28T20:06:40.688Z,20.30
2022-10-28T20:09:09.621Z,19.97
2022-10-28T20:11:39.703Z,26.07
2022-10-28T20:14:12.387Z,20.60
2022-10-28T20:16:43.224Z,20.17
2022-10-28T20:19:12.045Z,19.70
2022-10-28T20:21:41.135Z,21.73
2022-10-28T20:24:10.004Z,19.50
2022-10-28T20:26:39.672Z,20.23
2022-10-28T20:29:10.007Z,19.33
2022-10-28T20:31:39.874Z,21.53
2022-10-28T20:34:09.068Z,20.47
2022-10-28T20:36:39.081Z,21.50
2022-10-28T20:39:10.817Z,20.00
2022-10-28T20:41:40.739Z,20.50
2022-10-28T20:44:10.854Z,23.27
2022-10-28T20:46:39.469Z,23.30
2022-10-28T20:49:09.729Z,42.27
2022-10-28T20:51:38.423Z,39.27
2022-10-28T20:54:07.308Z,26.00
2022-10-28T20:56:37.380Z,27.23
2022-10-28T20:59:06.209Z,25.17
2022-10-28T21:01:39.866Z,25.00
2022-10-28T21:04:11.082Z,26.33
2022-10-28T21:06:40.026Z,23.87
2022-10-28T21:09:09.258Z,22.07
2022-10-28T21:11:37.819Z,23.10
2022-10-28T21:14:06.435Z,23.10
2022-10-28T21:16:36.348Z,23.37
2022-10-28T21:19:04.866Z,22.20
2022-10-28T21:21:33.361Z,23.17
2022-10-28T21:24:01.830Z,24.53
2022-10-28T21:26:30.630Z,23.57
2022-10-28T21:28:59.118Z,29.27
2022-10-28T21:31:27.676Z,26.07
2022-10-28T21:34:00.717Z,25.37
2022-10-28T21:36:31.857Z,27.23
2022-10-28T21:39:00.338Z,28.47
2022-10-28T21:41:28.841Z,26.80
2022-10-28T21:43:57.310Z,22.50
2022-10-28T21:46:26.169Z,24.93
2022-10-28T21:48:56.111Z,23.77
2022-10-28T21:51:24.652Z,26.70
2022-10-28T21:53:53.136Z,26.77
2022-10-28T21:56:22.105Z,44.80
2022-10-28T21:58:51.762Z,34.93
2022-10-28T22:01:22.501Z,26.90
2022-10-28T22:03:51.540Z,28.37
2022-10-28T22:06:21.516Z,29.57
2022-10-28T22:08:50.387Z,29.40
2022-10-28T22:11:20.881Z,30.07
2022-10-28T22:13:55.974Z,24.73
2022-10-28T22:16:24.723Z,26.43
2022-10-28T22:18:53.508Z,23.47
2022-10-28T22:21:25.519Z,25.97
2022-10-28T22:23:54.627Z,32.27
2022-10-28T22:26:24.503Z,28.87
2022-10-28T22:28:53.787Z,25.80
2022-10-28T22:31:23.992Z,24.83
2022-10-28T22:33:52.969Z,24.60
2022-10-28T22:36:24.638Z,23.23
2022-10-28T22:38:53.701Z,23.30
2022-10-28T22:41:24.473Z,24.47
2022-10-28T22:43:54.582Z,24.63
2022-10-28T22:46:24.180Z,22.40
2022-10-28T22:48:53.229Z,23.77
2022-10-28T22:51:23.790Z,22.30
2022-10-28T22:53:52.758Z,23.57
2022-10-28T22:56:23.049Z,23.83
2022-10-28T22:58:55.448Z,22.07
2022-10-28T23:01:24.955Z,21.83
2022-10-28T23:03:54.652Z,21.70
2022-10-28T23:06:26.292Z,22.40
2022-10-28T23:08:55.521Z,23.80
2022-10-28T23:11:24.657Z,23.37
2022-10-28T23:13:54.169Z,25.20
2022-10-28T23:16:24.229Z,24.80
2022-10-28T23:18:53.693Z,24.00
2022-10-28T23:21:25.426Z,21.87
2022-10-28T23:23:58.350Z,22.33
2022-10-28T23:26:27.930Z,21.17
2022-10-28T23:28:58.095Z,22.03
2022-10-28T23:31:27.133Z,22.30
2022-10-28T23:33:56.520Z,22.23
2022-10-28T23:36:26.405Z,20.13
2022-10-28T23:38:56.932Z,21.60
2022-10-28T23:41:25.480Z,23.10
2022-10-28T23:43:54.042Z,20.53
2022-10-28T23:46:22.604Z,21.77
2022-10-28T23:48:51.072Z,22.70
2022-10-28T23:51:20.393Z,21.17
2022-10-28T23:53:50.264Z,21.93
2022-10-28T23:56:18.696Z,21.50
2022-10-28T23:58:47.265Z,21.23
